Cienfuegos, Cienfuegos Jaime Gonzalez Airport (MUCF)

NameCienfuegos Jaime Gonzalez Airport
CityCienfuegos
CountryCuba
ICAOMUCF
IATACFG
Altitude31 m
CoordinatesGoogle Map
Live Air TrafficLiveATC.net
METARMUCF 201750Z 35004KT 290V050 8000 BKN025 28/22 Q1017
2019-04-20 17:50:00 Wind: North-Northwest (350°) 2.06 m/s - Visibility: 8000 m - Temperature: 28 °C - Dew point: 22 °C - Humidity: 69.9% - Pressure: 1017 hPa

Sorry, no flights used the airport in this database.